M I D A S
Marine Information and Data Acquisition System
Tripno 371 of the Zeeleeuw from 2002-12-17 07:58:17 to 2002-12-17 15:40:07
Back to CruiseResearch ActivitiesStationsMapUnderway DataData graphs

EquipmentUnitsComment
TimeDGPSUTC
LatitudeDGPSDM.mWGS84
LongitudeDGPSDM.mWGS84
HeadingGyrodeg 
SOGDGPSknotsSpeed over ground
COGDGPSdegCourse over ground
DepthEcho soundermeters200 kHz
Missing or incorrect values are displayed as -999
Navigation data collected by the RV Zeeleeuw from 2002-12-17 07:58:17 to 2002-12-17 15:40:07
Time Latitude Longitude Heading SOG COG Depth
2002-12-17 07:59:21 51°13.591 2°56.107 123.7 3.2 300.4 -999
2002-12-17 08:00:22 51°13.634 2°55.975 117 6.8 294.5 -999
2002-12-17 08:01:22 51°13.672 2°55.809 104.3 5.4 285.3 -999
2002-12-17 08:02:21 51°13.678 2°55.743 66.3 0.6 289.3 13.4
2002-12-17 08:03:21 51°13.706 2°55.741 352.5 2.7 343.6 13.2
2002-12-17 08:04:21 51°13.786 2°55.676 339 7.1 333 -999
2002-12-17 08:05:22 51°13.911 2°55.58 341.7 8.8 335.4 11
2002-12-17 08:06:22 51°14.046 2°55.48 340.7 9 335 11.1
2002-12-17 08:07:22 51°14.21 2°55.326 329.3 12.7 323.8 10.8
2002-12-17 08:08:21 51°14.351 2°55.082 315.2 13.1 309.4 10.8
2002-12-17 08:09:21 51°14.52 2°54.862 336.2 13.3 329.6 10.3
2002-12-17 08:10:21 51°14.71 2°54.664 333.5 13.8 326.1 10
2002-12-17 08:11:22 51°14.907 2°54.461 334.8 13.8 327.1 9.8
2002-12-17 08:12:21 51°15.093 2°54.267 336.5 13.7 327.2 9.2
2002-12-17 08:13:22 51°15.293 2°54.071 336.2 13.7 327.8 10
2002-12-17 08:14:22 51°15.486 2°53.874 335.8 13.8 327.5 10.8
2002-12-17 08:15:22 51°15.678 2°53.675 337 13.8 328.1 11.7
2002-12-17 08:16:22 51°15.88 2°53.5 340 13.7 331.2 12.3
2002-12-17 08:17:22 51°16.082 2°53.325 340 13.7 331.6 12.8
2002-12-17 08:18:21 51°16.278 2°53.166 339.8 13.5 332.5 13
2002-12-17 08:19:21 51°16.476 2°52.999 340 13.5 332.4 13
2002-12-17 08:20:22 51°16.678 2°52.828 339.5 13.5 332.3 11.9
2002-12-17 08:21:22 51°16.874 2°52.663 340.5 13.3 332.6 10.3
2002-12-17 08:22:21 51°17.067 2°52.502 339.8 13.2 331.7 10.5
2002-12-17 08:23:22 51°17.264 2°52.327 337.3 13.3 329.4 11.1
2002-12-17 08:24:22 51°17.449 2°52.13 333.3 13.4 325.5 11.5
2002-12-17 08:25:22 51°17.604 2°51.872 316.7 13.5 308.5 11.3
2002-12-17 08:26:22 51°17.739 2°51.589 316.5 13.4 307.6 11
2002-12-17 08:27:21 51°17.877 2°51.312 316.8 13.5 308.1 11.5
2002-12-17 08:28:21 51°18.019 2°51.029 317.7 13.7 308.9 13.1
2002-12-17 08:29:22 51°18.162 2°50.741 316.8 13.6 307.6 14
2002-12-17 08:30:21 51°18.305 2°50.463 319 13.7 309.6 14.5
2002-12-17 08:31:21 51°18.446 2°50.173 315.3 13.9 305.9 15.3
2002-12-17 08:32:21 51°18.57 2°49.865 310.3 13.7 301.7 14.4
2002-12-17 08:33:22 51°18.694 2°49.556 310.3 13.5 302.8 12.1
2002-12-17 08:34:21 51°18.815 2°49.259 310.5 13.7 303.2 12.3
2002-12-17 08:35:21 51°18.94 2°48.955 310.2 13.8 302.6 13.2
2002-12-17 08:36:21 51°19.067 2°48.647 310.8 13.9 302.7 15.9
2002-12-17 08:37:22 51°19.193 2°48.331 311 13.9 302.3 18.4
2002-12-17 08:38:21 51°19.319 2°48.023 311.2 14.1 302.8 20.7
2002-12-17 08:39:21 51°19.445 2°47.706 311.3 14 302 22.5
2002-12-17 08:40:22 51°19.573 2°47.384 310.3 14.1 302.1 22.6
2002-12-17 08:41:22 51°19.701 2°47.063 310.7 14.3 302.3 22.5
2002-12-17 08:42:22 51°19.83 2°46.743 310.2 14.4 301.7 20.2
2002-12-17 08:43:21 51°19.948 2°46.423 308.8 14.1 300 15.3
2002-12-17 08:44:22 51°20.058 2°46.086 304 14 296.3 15.6
2002-12-17 08:45:21 51°20.16 2°45.759 299 14 293.2 17.9
2002-12-17 08:46:22 51°20.238 2°45.404 292.3 13.9 286.2 23.3
2002-12-17 08:47:22 51°20.312 2°45.057 292.8 13.9 287.7 25.2
2002-12-17 08:48:21 51°20.423 2°44.769 308.7 11 301.8 26.8
2002-12-17 08:49:21 51°20.484 2°44.597 301 5.7 294.5 27.6
2002-12-17 08:50:22 51°20.516 2°44.484 303.7 4.2 292 28.2
2002-12-17 08:51:21 51°20.537 2°44.376 290.5 4.3 283.8 29
2002-12-17 08:52:22 51°20.548 2°44.259 286 4.5 278 29.2
2002-12-17 08:53:21 51°20.591 2°44.09 317.3 10.7 309.6 28.9
2002-12-17 08:54:22 51°20.797 2°44.003 351.8 13.3 348.3 28.1
2002-12-17 08:55:22 51°21.006 2°43.883 345 13.4 339.9 26
2002-12-17 08:56:21 51°21.212 2°43.757 343 13.4 337.6 24.6
2002-12-17 08:57:21 51°21.421 2°43.627 344.2 13.4 338.8 23.1
2002-12-17 08:58:21 51°21.628 2°43.498 344.3 13.3 339.7 22.7
2002-12-17 08:59:22 51°21.834 2°43.37 343.8 12.6 338.2 23.4
2002-12-17 09:00:22 51°22.035 2°43.253 345 13.3 340.7 22.2
2002-12-17 09:01:22 51°22.244 2°43.131 344.8 13.5 340.1 23.8
2002-12-17 09:02:21 51°22.448 2°43.01 343.7 12.7 338.6 25.5
2002-12-17 09:03:21 51°22.656 2°42.891 344.5 13.4 339.8 28.1
2002-12-17 09:04:21 51°22.866 2°42.772 345.3 13.6 340.6 27.6
2002-12-17 09:05:22 51°23.084 2°42.652 345.7 13.6 341.3 27.9
2002-12-17 09:06:22 51°23.297 2°42.535 345.2 13.6 341.1 27.3
2002-12-17 09:07:22 51°23.514 2°42.419 345.7 13.8 341.2 29.5
2002-12-17 09:08:21 51°23.723 2°42.305 344.8 13.5 340.9 29.3
2002-12-17 09:09:22 51°23.939 2°42.186 345 13.5 340.4 26.6
2002-12-17 09:10:21 51°24.149 2°42.067 345.8 13.7 341.4 26.9
2002-12-17 09:11:21 51°24.36 2°41.948 345.5 13.3 340.8 27.8
2002-12-17 09:12:21 51°24.572 2°41.83 344.8 13.6 340.4 27.1
2002-12-17 09:13:21 51°24.786 2°41.713 345.2 13.6 341.2 27.3
2002-12-17 09:14:21 51°24.999 2°41.592 344.8 13.5 341.1 27
2002-12-17 09:15:21 51°25.212 2°41.477 346 13.4 342.4 27.7
2002-12-17 09:16:22 51°25.431 2°41.358 344.5 13.7 340.7 27.3
2002-12-17 09:17:21 51°25.639 2°41.237 344.8 13.6 339.7 29.3
2002-12-17 09:18:21 51°25.851 2°41.115 345.2 13.4 340.4 30.3
2002-12-17 09:19:22 51°26.066 2°40.996 344.5 13.4 340.5 30.6
2002-12-17 09:20:22 51°26.278 2°40.879 349.3 13.6 344.5 32.6
2002-12-17 09:21:22 51°26.5 2°40.893 18 13.6 12.8 34.2
2002-12-17 09:22:21 51°26.681 2°41.083 52.8 13.4 47.9 32.8
2002-12-17 09:23:22 51°26.777 2°41.426 75 14.1 70.7 34.7
2002-12-17 09:24:21 51°26.846 2°41.777 76.7 14.1 73.2 32
2002-12-17 09:25:21 51°26.92 2°42.134 75.5 14.1 72 32
2002-12-17 09:26:22 51°26.991 2°42.5 77.5 14.2 72.8 33.1
2002-12-17 09:27:22 51°27.058 2°42.858 77.2 13.9 73.4 33.2
2002-12-17 09:28:22 51°27.124 2°43.217 77.8 14 73.2 32
2002-12-17 09:29:21 51°27.191 2°43.574 78 14.2 73.5 30.6
2002-12-17 09:30:21 51°27.258 2°43.938 78.7 14.1 73.9 26.8
2002-12-17 09:31:22 51°27.297 2°44.316 93.8 14.1 88.8 29.1
2002-12-17 09:32:21 51°27.264 2°44.683 116.7 14.1 109.9 27.2
2002-12-17 09:33:22 51°27.114 2°44.964 149.7 13.6 143.4 29.4
2002-12-17 09:34:22 51°26.91 2°45.131 161.8 13.9 155.3 29.6
2002-12-17 09:35:21 51°26.717 2°45.317 154 13.6 148.3 30
2002-12-17 09:36:22 51°26.515 2°45.506 152.8 14 148.2 30.2
2002-12-17 09:37:22 51°26.325 2°45.71 147.5 14 142.4 27.9
2002-12-17 09:38:21 51°26.144 2°45.924 151.2 13.8 144.9 27.7
2002-12-17 09:39:22 51°25.954 2°46.145 149.3 13.7 142.2 27.3
2002-12-17 09:40:21 51°25.772 2°46.357 150.2 14.1 144.7 26.2
2002-12-17 09:41:21 51°25.59 2°46.589 147.3 14.4 140.7 24.8
2002-12-17 09:42:22 51°25.411 2°46.833 142.7 13.9 135.5 27
2002-12-17 09:43:22 51°25.34 2°47.177 94.8 14.1 89 26.9
2002-12-17 09:44:21 51°25.415 2°47.525 66.3 14.2 61.7 27.2
2002-12-17 09:45:21 51°25.545 2°47.842 62.2 14.2 56.1 25.9
2002-12-17 09:46:22 51°25.68 2°48.169 63.7 14.4 58.1 25.6
2002-12-17 09:47:22 51°25.805 2°48.497 65.5 14.5 59.6 25.6
2002-12-17 09:48:21 51°25.921 2°48.827 66.7 14.4 61.5 25.8
2002-12-17 09:49:21 51°26.038 2°49.164 66.7 14.6 60.9 25.6
2002-12-17 09:50:21 51°26.156 2°49.502 68.5 14.6 62.1 25.3
2002-12-17 09:51:22 51°26.268 2°49.854 68.3 14.6 62.6 25.3
2002-12-17 09:52:22 51°26.458 2°50.016   13.3 356.1 24.6
2002-12-17 09:53:21 51°26.628 2°49.816 326.8 13.7 322.3 21.5
2002-12-17 09:54:21 51°26.808 2°49.593 328 13.8 323.3 21.6
2002-12-17 09:55:22 51°26.996 2°49.374 328.7 13.8 324.2 25.1
2002-12-17 09:56:21 51°27.179 2°49.167 329.5 13.5 325.4 25.6
2002-12-17 09:57:22 51°27.37 2°48.952 327.8 13.7 324.1 27.7
2002-12-17 09:58:22 51°27.558 2°48.739 328.7 13.9 325.2 30.8
2002-12-17 09:59:21 51°27.746 2°48.531 329 13.9 325.2 30.7
2002-12-17 10:00:22 51°27.936 2°48.314 328.5 13.9 324.6 31.5
2002-12-17 10:01:21 51°28.123 2°48.107 328.3 13.6 325.1 33.9
2002-12-17 10:02:22 51°28.314 2°47.894 326.8 13.8 323 34
2002-12-17 10:03:21 51°28.495 2°47.685 326.2 13.9 323 32.3
2002-12-17 10:04:21 51°28.682 2°47.474 327.7 13.8 325.8 29.3
2002-12-17 10:05:21 51°28.865 2°47.262 327 13.5 325.3 28.9
2002-12-17 10:06:29 51°29.073 2°47.023 325.7 13.7 323.8 27.5
2002-12-17 10:07:29 51°29.254 2°46.809 326.2 13.8 324.9 24.5
2002-12-17 10:08:29 51°29.438 2°46.598 326 13.7 324.5 24
2002-12-17 10:09:29 51°29.622 2°46.383 326.7 13.8 324.2 26.7
2002-12-17 10:10:29 51°29.805 2°46.17 324.7 13.4 323.3 27.2
2002-12-17 10:11:29 51°29.986 2°45.958 326 13.6 323.8 29.4
2002-12-17 10:12:29 51°30.197 2°45.83 356.5 13.8 353.1 30.6
2002-12-17 10:13:29 51°30.42 2°45.931 36.8 14.3 31.6 31.1
2002-12-17 10:14:29 51°30.565 2°46.236 67.2 14.6 61.8 31.1
2002-12-17 10:15:29 51°30.684 2°46.578 66.8 14.7 60.6 28.8
2002-12-17 10:16:29 51°30.803 2°46.92 66.5 14.8 60.7 27.8
2002-12-17 10:17:29 51°30.92 2°47.266 67.8 14.8 61.4 29.3
2002-12-17 10:18:33 51°31.04 2°47.634 67.7 14.7 62 31.3
2002-12-17 10:19:34 51°31.152 2°47.99 68.7 14.4 63.1 32
2002-12-17 10:20:33 51°31.273 2°48.321 65.3 14.8 59.2 31.3
2002-12-17 10:21:33 51°31.397 2°48.657 65.7 14.6 59.3 32.3
2002-12-17 10:22:33 51°31.522 2°48.999 65.7 14.8 60.5 29.3
2002-12-17 10:23:34 51°31.639 2°49.34 67.5 14.4 61.8 31.3
2002-12-17 10:24:34 51°31.759 2°49.68 65.5 14.7 59.6 30.9
2002-12-17 10:25:34 51°31.88 2°50.017 66.2 14.7 60.4 30.5
2002-12-17 10:26:34 51°31.999 2°50.362 71.8 14.6 65 32.5
2002-12-17 10:27:34 51°31.99 2°50.733 122.2 14 114 31.5
2002-12-17 10:28:33 51°31.834 2°50.991 155 14 147 29.8
2002-12-17 10:29:33 51°31.638 2°51.163 158.5 14 151 29.6
2002-12-17 10:30:33 51°31.442 2°51.344 160.2 13.3 151.3 28.5
2002-12-17 10:31:34 51°31.24 2°51.524 160 13.8 151.5 26.8
2002-12-17 10:32:33 51°31.045 2°51.71 158 13.9 149.4 22.6
2002-12-17 10:33:34 51°30.846 2°51.889 161.7 13.4 152.1 23.5
2002-12-17 10:34:33 51°30.648 2°52.058 161.8 13.6 151.6 22.7
2002-12-17 10:35:34 51°30.448 2°52.241 159.7 13.8 151.1 27.2
2002-12-17 10:36:33 51°30.249 2°52.411 161 13.8 152 31.1
2002-12-17 10:37:34 51°30.044 2°52.585 161.8 13.7 152.2 31.4
2002-12-17 10:38:34 51°29.876 2°52.825 123.5 14 114.7 31.7
2002-12-17 10:39:34 51°29.94 2°53.176 60.3 14.8 53.1 33.1
2002-12-17 10:40:34 51°30.072 2°53.514 64 15 57 33.4
2002-12-17 10:41:34 51°30.198 2°53.859 66.8 14.9 60.4 33.4
2002-12-17 10:42:34 51°30.321 2°54.203 67.2 14.8 61.5 36.2
2002-12-17 10:43:33 51°30.437 2°54.545 67.2 14.9 61.6 36.2
2002-12-17 10:44:33 51°30.556 2°54.893 66.8 14.8 62 37
2002-12-17 10:45:34 51°30.676 2°55.244 67 14.8 61.4 39.2
2002-12-17 10:46:33 51°30.792 2°55.585 66.5 14.8 60.8 40.3
2002-12-17 10:47:33 51°30.91 2°55.932 67 14.9 61 37.3
2002-12-17 10:48:34 51°31.034 2°56.287 67.8 14.9 61.9 35.5
2002-12-17 10:49:34 51°31.154 2°56.637 67.7 14.9 62.1 33.7
2002-12-17 10:50:33 51°31.273 2°56.981 66.5 15 60.8 35
2002-12-17 10:51:33 51°31.393 2°57.33 66.7 15 60.2 33.8
2002-12-17 10:52:33 51°31.576 2°57.556 14 13.8 12.2 35.6
2002-12-17 10:53:33 51°31.776 2°57.425 323 13.3 321.4 28.1
2002-12-17 10:54:34 51°31.951 2°57.192 320.5 13.4 318.6 17.6
2002-12-17 10:55:34 51°32.133 2°56.97 325.7 13.7 324.2 21
2002-12-17 10:56:33 51°32.314 2°56.764 327.3 13.5 325.9 19.7
2002-12-17 10:57:33 51°32.502 2°56.556 326.3 13.8 325.1 24.3
2002-12-17 10:58:34 51°32.695 2°56.341 327.7 13.9 326.1 25.1
2002-12-17 10:59:34 51°32.888 2°56.134 327.5 13.9 325.7 27.4
2002-12-17 11:00:34 51°33.078 2°55.926 327 13.8 325 27.8
2002-12-17 11:01:33 51°33.262 2°55.718 326.2 13.6 324.7 27.9
2002-12-17 11:02:33 51°33.4 2°55.589 336.7 6.9 338.9 27.8
2002-12-17 11:03:34 51°33.524 2°55.545 3.5 9.2 1.5 28.1
2002-12-17 11:04:33 51°33.642 2°55.711 66 10.6 59.7 30.3
2002-12-17 11:05:34 51°33.746 2°55.964 60.2 11.3 54.5 29.5
2002-12-17 11:06:33 51°33.85 2°56.205 61 11.1 55 31.3
2002-12-17 11:07:34 51°33.958 2°56.457 63.2 11.3 57.2 31.7
2002-12-17 11:08:33 51°34.058 2°56.709 64.3 11.3 58 32
2002-12-17 11:09:33 51°34.159 2°56.965 64 11.3 57.4 32.1
2002-12-17 11:10:34 51°34.261 2°57.225 65.7 11.3 58.5 31.4
2002-12-17 11:11:34 51°34.357 2°57.479 66.5 11 58.8 31.7
2002-12-17 11:12:34 51°34.452 2°57.738 66.8 11.3 59.6 28.2
2002-12-17 11:13:33 51°34.548 2°57.997 68.5 11.3 60.8 30.6
2002-12-17 11:14:33 51°34.639 2°58.262 68.7 11.3 61.7 31.3
2002-12-17 11:15:34 51°34.731 2°58.534 68.3 11.4 61.6 29.5
2002-12-17 11:16:33 51°34.823 2°58.798 67.8 11.5 60.9 28.5
2002-12-17 11:17:33 51°34.916 2°59.065 68.2 11.5 61.5 30.8
2002-12-17 11:18:34 51°35.009 2°59.339 68 11.3 61.3 31.4
2002-12-17 11:19:34 51°35.099 2°59.602 68.2 11.1 61.6 27
2002-12-17 11:20:33 51°35.191 2°59.863 67.7 11.5 60.4 31.3
2002-12-17 11:21:33 51°35.23 3°0.137 107.7 8.7 95.8 29.1
2002-12-17 11:22:33 51°35.164 3°0.342 142.2 11.8 132 29.1
2002-12-17 11:23:33 51°35.013 3°0.525 155.3 8.1 144.3 25.3
2002-12-17 11:24:33 51°34.924 3°0.649 154.7 8.4 143.6 24.4
2002-12-17 11:25:34 51°34.782 3°0.758 160.3 9.9 151.2 21.2
2002-12-17 11:26:33 51°34.644 3°0.904 158.2 10.1 148.2 18.4
2002-12-17 11:27:34 51°34.494 3°1.029 163.2 10 153.7 16.5
2002-12-17 11:28:33 51°34.344 3°1.143 165.5 10.1 154.9 17.3
2002-12-17 11:29:34 51°34.188 3°1.248 167 10 158.3 18.1
2002-12-17 11:30:34 51°34.036 3°1.352 166.7 9.8 156.2 19.8
2002-12-17 11:31:34 51°33.885 3°1.454 167 9.9 157.2 28.2
2002-12-17 11:32:33 51°33.735 3°1.554 167.5 9.9 157.1 36.8
2002-12-17 11:33:33 51°33.583 3°1.661 168.3 10 157 36.5
2002-12-17 11:34:33 51°33.431 3°1.77 169.8 9.9 157.3 35.9
2002-12-17 11:35:33 51°33.278 3°1.866 170.2 9.8 159.5 31.8
2002-12-17 11:36:33 51°33.125 3°1.957 171.3 9.6 160.5 29.1
2002-12-17 11:37:34 51°32.97 3°2.046 171.5 9.9 161.5 25.7
2002-12-17 11:38:33 51°32.819 3°2.132 170.5 9.9 161.7 23.2
2002-12-17 11:39:34 51°32.666 3°2.221 169.7 9.7 159.7 24.9
2002-12-17 11:40:34 51°32.513 3°2.317 169.8 9.8 159.6 25.3
2002-12-17 11:41:34 51°32.358 3°2.408 169 9.9 158.5 27.3
2002-12-17 11:42:33 51°32.206 3°2.503 170 9.9 158.3 28.3
2002-12-17 11:43:33 51°32.055 3°2.589 170.8 9.7 160.3 29
2002-12-17 11:44:33 51°31.902 3°2.683 169 9.8 157.2 30
2002-12-17 11:45:33 51°31.751 3°2.779 170 9.7 158 29.8
2002-12-17 11:46:33 51°31.599 3°2.866 170.3 9.8 159.3 29.9
2002-12-17 11:47:33 51°31.452 3°2.96 169.2 9.4 157 29.9
2002-12-17 11:48:33 51°31.303 3°3.06 168.8 9.7 157.1 30.5
2002-12-17 11:49:34 51°31.15 3°3.158 170 9.6 159.9 30.2
2002-12-17 11:50:33 51°31.004 3°3.256 167.3 9.7 157.4 30.4
2002-12-17 11:51:33 51°30.854 3°3.353 168.7 9.7 159 29.9
2002-12-17 11:52:34 51°30.7 3°3.456 167 10 156.9 29.3
2002-12-17 11:53:33 51°30.549 3°3.549 169.2 9.8 159.1 28.7
2002-12-17 11:54:33 51°30.396 3°3.649 168.5 9.9 158.5 27.9
2002-12-17 11:55:34 51°30.239 3°3.749 167.8 9.9 159.4 27.6
2002-12-17 11:56:33 51°30.093 3°3.843 168.5 8.1 157.4 26
2002-12-17 11:57:33 51°29.972 3°3.935 167 10.3 159 25.1
2002-12-17 11:58:34 51°29.775 3°4.053 165.3 13.1 157.1 24
2002-12-17 11:59:33 51°29.582 3°4.211 161.2 13.3 152.7 25.4
2002-12-17 12:00:33 51°29.39 3°4.382 160.8 13.1 151.4 25.5
2002-12-17 12:01:34 51°29.191 3°4.558 158.5 13.3 149.6 25.5
2002-12-17 12:02:34 51°28.994 3°4.734 160.5 13.1 151 24.6
2002-12-17 12:03:34 51°28.797 3°4.909 159.7 13.6 151.3 22.7
2002-12-17 12:04:34 51°28.6 3°5.068 162.8 13.3 156.1 20.6
2002-12-17 12:05:34 51°28.402 3°5.225 160.2 13.4 152.3 18.2
2002-12-17 12:06:34 51°28.194 3°5.332 178.8 13.4 173.6 16.6
2002-12-17 12:07:34 51°27.973 3°5.365 179 13.4 174.6 16.6
2002-12-17 12:08:33 51°27.759 3°5.389 182.2 13.3 176.5 17.2
2002-12-17 12:09:34 51°27.536 3°5.408 180.5 13.7 176 16.5
2002-12-17 12:10:34 51°27.319 3°5.441 177.2 13.3 172.3 16
2002-12-17 12:11:34 51°27.133 3°5.61 145 12.7 136.7 15
2002-12-17 12:12:34 51°27.01 3°5.906 126.7 13.3 118.9 13.8
2002-12-17 12:13:34 51°26.915 3°6.238 119 13.9 110.4 13.8
2002-12-17 12:14:34 51°26.835 3°6.585 118 14.1 109.2 13.5
2002-12-17 12:15:34 51°26.751 3°6.926 121.3 13.9 112.8 13.5
2002-12-17 12:16:34 51°26.652 3°7.249 108.7 13.6 100.6 12.8
2002-12-17 12:17:33 51°26.658 3°7.612 89.5 13.8 81.4 12.4
2002-12-17 12:18:34 51°26.756 3°7.857 45.2 7.7 40.8 12.9
2002-12-17 12:19:34 51°26.819 3°7.919 52.2 2.1 34.5 13.1
2002-12-17 12:20:33 51°26.837 3°7.938 77.7 1 34.9 12.5
2002-12-17 12:21:35 51°26.849 3°7.948 97.5 0.6 25.8 -999
2002-12-17 12:22:34 51°26.859 3°7.954 115.2 0.6 22.6 13
2002-12-17 12:23:33 51°26.862 3°7.969 136.8 1.5 109.3 13.1
2002-12-17 12:24:34 51°26.835 3°8.017 164.5 2.6 144.7 13.2
2002-12-17 12:25:34 51°26.795 3°8.024 204.5 2.4 197.8 13.3
2002-12-17 12:26:34 51°26.762 3°7.985 225.3 2.6 227.9 12.5
2002-12-17 12:27:34 51°26.74 3°7.927 241.7 2.6 247.9 13
2002-12-17 12:28:34 51°26.731 3°7.859 254.7 2.5 263.4 12.8
2002-12-17 12:29:34 51°26.735 3°7.79 269.7 2.7 280.4 13
2002-12-17 12:30:34 51°26.752 3°7.718 283.8 3 296.4 12.9
2002-12-17 12:31:34 51°26.778 3°7.656 298 2.6 311.2 12.8
2002-12-17 12:32:34 51°26.808 3°7.611 307.3 2.4 317.9 13
2002-12-17 12:33:34 51°26.841 3°7.571 315.3 2.6 325.8 13
2002-12-17 12:34:34 51°26.879 3°7.533 320.8 2.7 328.3 13.2
2002-12-17 12:35:33 51°26.919 3°7.496 322.2 2.9 329.7 13.3
2002-12-17 12:36:34 51°26.962 3°7.457 327.2 2.8 333 13.4
2002-12-17 12:37:34 51°26.999 3°7.428 329 2.2 335.6 13.5
2002-12-17 12:38:34 51°27.034 3°7.403 334.2 2.5 337.5 13.6
2002-12-17 12:39:34 51°27.075 3°7.381 342.5 2.7 345.6 13.7
2002-12-17 12:40:33 51°27.121 3°7.365 349 2.9 349.1 13.7
2002-12-17 12:41:34 51°27.167 3°7.352 353 2.8 350.9 13.8
2002-12-17 12:42:34 51°27.21 3°7.343 357.5 2.4 353.6 13.5
2002-12-17 12:43:33 51°27.253 3°7.336 0.3 2.6 355.9 13.9
2002-12-17 12:44:34 51°27.297 3°7.333 4.5 2.6 358.1 14.1
2002-12-17 12:45:34 51°27.335 3°7.335 17.3 2.2 5 13.9
2002-12-17 12:46:33 51°27.368 3°7.345 37.5 2 16.3 14.3
2002-12-17 12:47:34 51°27.4 3°7.378 69.7 2.4 45.6 14.4
2002-12-17 12:48:33 51°27.412 3°7.43 119.2 2 92.4 13.8
2002-12-17 12:49:34 51°27.395 3°7.477 146.5 2.1 128.8 14.1
2002-12-17 12:50:34 51°27.371 3°7.523 149.3 2.3 132.3 13.9
2002-12-17 12:51:33 51°27.343 3°7.561 160.3 2.3 145.4 13.8
2002-12-17 12:52:34 51°27.309 3°7.589 171 2.2 158.7 13.5
2002-12-17 12:53:34 51°27.272 3°7.602 182.8 2.2 175 13.3
2002-12-17 12:54:34 51°27.236 3°7.598 193.7 2.2 189.8 13.4
2002-12-17 12:55:33 51°27.202 3°7.58 203.3 2.2 201.5 13.5
2002-12-17 12:56:34 51°27.17 3°7.549 212.8 2.3 215.7 13.4
2002-12-17 12:57:34 51°27.143 3°7.507 225.2 2.4 232.4 13.3
2002-12-17 12:58:33 51°27.124 3°7.451 239.7 2.5 248.7 13.2
2002-12-17 12:59:34 51°27.115 3°7.383 254.7 2.7 265.4 13.6
2002-12-17 13:00:34 51°27.121 3°7.309 277.2 2.9 286.5 13.7
2002-12-17 13:01:33 51°27.142 3°7.245 296.8 2.7 306 13.6
2002-12-17 13:02:33 51°27.174 3°7.195 314.3 2.7 322.2 13.8
2002-12-17 13:03:34 51°27.213 3°7.154 328.8 2.8 329.8 13.8
2002-12-17 13:04:33 51°27.252 3°7.124 338.2 2.7 338.4 14.3
2002-12-17 13:05:33 51°27.295 3°7.101 348.3 2.7 344.2 14.4
2002-12-17 13:06:33 51°27.341 3°7.085 356.5 2.9 350.8 14.5
2002-12-17 13:07:33 51°27.38 3°7.077 1.3 2 351 14.2
2002-12-17 13:08:33 51°27.408 3°7.069 1.2 1.5 349.1 14.7
2002-12-17 13:09:34 51°27.431 3°7.061 358.5 1.2 344 14.6
2002-12-17 13:10:33 51°27.452 3°7.048 344.2 2.5 338 14.5
2002-12-17 13:11:33 51°27.485 3°6.891 262.7 9.3 264.1 14.8
2002-12-17 13:12:33 51°27.383 3°6.643 227 12.8 225.2 15.1
2002-12-17 13:13:33 51°27.227 3°6.397 225.5 13.2 223.5 14.6
2002-12-17 13:14:33 51°27.049 3°6.193 215.3 12.9 212.5 13.8
2002-12-17 13:15:34 51°26.856 3°6.018 211.7 13.4 208.6 12.8
2002-12-17 13:16:34 51°26.667 3°5.851 211.7 12.7 208.7 12.5
2002-12-17 13:17:34 51°26.476 3°5.691 206.2 12.6 203.9 12.1
2002-12-17 13:18:34 51°26.272 3°5.586 201.5 12.4 197.3 12
2002-12-17 13:19:34 51°26.064 3°5.48 204.2 13.1 199 12.1
2002-12-17 13:20:33 51°25.861 3°5.405 192 12.9 186.9 12
2002-12-17 13:21:34 51°25.638 3°5.392 186.5 13.7 181.1 12.3
2002-12-17 13:22:34 51°25.419 3°5.386 189.5 13 183.8 12.7
2002-12-17 13:23:34 51°25.196 3°5.371 189 13 183.5 13.1
2002-12-17 13:24:33 51°24.978 3°5.357 187.5 13.1 182.5 13.9
2002-12-17 13:25:34 51°24.753 3°5.359 183.7 13.9 179 14.2
2002-12-17 13:26:34 51°24.53 3°5.361 185 13.3 180.6 13.6
2002-12-17 13:27:34 51°24.303 3°5.357 183.2 13.9 178.9 17.6
2002-12-17 13:28:33 51°24.086 3°5.384 169.5 13.4 165.4 19.7
2002-12-17 13:29:34 51°23.891 3°5.558 136 13.1 131.6 17.9
2002-12-17 13:30:34 51°23.874 3°5.907 88.3 14 81.5 19.6
2002-12-17 13:31:34 51°23.896 3°6.277 94 13.8 87.1 19.9
2002-12-17 13:32:34 51°23.904 3°6.65 94.5 14 88.3 19.7
2002-12-17 13:33:33 51°23.911 3°7.016 95 13.9 87.9 19.5
2002-12-17 13:34:34 51°23.914 3°7.388 95.5 13.7 90.2 19.8
2002-12-17 13:35:34 51°23.916 3°7.754 95.5 13.8 89.6 19.7
2002-12-17 13:36:33 51°23.917 3°8.113 95.5 13.8 89.5 20.1
2002-12-17 13:37:33 51°23.934 3°8.479 88.7 13.9 82.8 19.6
2002-12-17 13:38:34 51°23.96 3°8.849 89.3 13.8 84 18.9
2002-12-17 13:39:33 51°23.985 3°9.209 90 13.8 84.6 18.7
2002-12-17 13:40:34 51°24.009 3°9.58 90.3 13.8 83.8 18.9
2002-12-17 13:41:33 51°24.031 3°9.939 89.5 13.8 84.2 18.8
2002-12-17 13:42:34 51°24.055 3°10.311 89.2 13.8 82.8 18.6
2002-12-17 13:43:34 51°24.08 3°10.674 89.2 13.7 83.4 18.6
2002-12-17 13:44:33 51°24.111 3°11.031 87.8 13.8 82.3 18.7
2002-12-17 13:45:34 51°24.146 3°11.401 86.2 13.8 80.4 18.6
2002-12-17 13:46:34 51°24.189 3°11.763 85.5 13.9 79.7 18.8
2002-12-17 13:47:34 51°24.229 3°12.124 85.8 13.8 80.3 19
2002-12-17 13:48:33 51°24.266 3°12.48 86.3 13.8 80.2 18.9
2002-12-17 13:49:33 51°24.304 3°12.842 86.5 13.8 80.9 19.1
2002-12-17 13:50:34 51°24.344 3°13.209 84.8 13.8 79.1 19.3
2002-12-17 13:51:33 51°24.384 3°13.561 84.8 13.6 79.3 19.4
2002-12-17 13:52:34 51°24.427 3°13.923 85.7 13.7 80.1 19.6
2002-12-17 13:53:33 51°24.465 3°14.274 86.3 13.6 80.7 19.3
2002-12-17 13:54:33 51°24.492 3°14.631 89.2 13.5 83.5 19.5
2002-12-17 13:55:34 51°24.514 3°14.991 92.3 13.4 86.3 19
2002-12-17 13:56:33 51°24.528 3°15.339 92.2 13.3 85.7 18.9
2002-12-17 13:57:33 51°24.53 3°15.688 98.7 13 93.8 18.9
2002-12-17 13:58:33 51°24.5 3°16.033 104.2 13.1 98.7 19
2002-12-17 13:59:33 51°24.464 3°16.378 103.5 13.1 98.6 19.2
2002-12-17 14:00:34 51°24.432 3°16.731 104 13 98.4 18.9
2002-12-17 14:01:39 51°24.399 3°17.106 103 13.1 97.2 18.9
2002-12-17 14:02:41 51°24.37 3°17.463 104.3 13 98.4 18.8
2002-12-17 14:03:41 51°24.341 3°17.807 104 12.9 98.3 18.4
2002-12-17 14:04:43 51°24.294 3°18.155 117.5 13 112.8 18.7
2002-12-17 14:05:41 51°24.19 3°18.447 124.8 13.2 121.6 16.8
2002-12-17 14:06:45 51°24.055 3°18.75 133.2 13.2 130.8 15.3
2002-12-17 14:07:44 51°23.888 3°18.968 150 13.5 149.2 14.2
2002-12-17 14:08:43 51°23.678 3°19.08 172.7 14 173.4 12.5
2002-12-17 14:09:41 51°23.457 3°19.041 201.3 14.4 200.8 11.7
2002-12-17 14:10:45 51°23.265 3°18.774 231.5 14.6 229.9 10.6
2002-12-17 14:11:45 51°23.163 3°18.419 261.5 14.9 257.2 9.7
2002-12-17 14:12:47 51°23.119 3°18.016 264 14.9 259.3 8.9
2002-12-17 14:13:47 51°23.072 3°17.63 261.3 14.8 257.1 8.7
2002-12-17 14:14:47 51°23.032 3°17.244 266 14.7 261.2 8.6
2002-12-17 14:15:46 51°22.981 3°16.869 265.7 14.7 260.7 8.6
2002-12-17 14:16:47 51°22.964 3°16.474 269.5 14.7 263.9 8.7
2002-12-17 14:17:47 51°22.938 3°16.085 269.8 14.8 264.9 8.9
2002-12-17 14:18:47 51°22.916 3°15.693 268.7 14.9 263.8 9.2
2002-12-17 14:19:47 51°22.884 3°15.301 266.3 14.9 261.7 9.4
2002-12-17 14:20:45 51°22.848 3°14.923 267 14.9 262.4 9.7
2002-12-17 14:21:45 51°22.805 3°14.532 263.5 15 259.2 10.3
2002-12-17 14:22:47 51°22.76 3°14.125 264.2 15 260.3 10.9
2002-12-17 14:23:47 51°22.714 3°13.733 264.3 15 260.3 11.5
2002-12-17 14:24:47 51°22.668 3°13.344 263 14.8 258.9 12.3
2002-12-17 14:25:47 51°22.625 3°12.956 264.2 14.8 260.1 12.9
2002-12-17 14:26:49 51°22.579 3°12.556 263.8 14.7 259.4 14.1
2002-12-17 14:27:49 51°22.533 3°12.171 264.2 14.8 259.6 14.6
2002-12-17 14:28:49 51°22.483 3°11.784 263 14.9 258.1 15.3
2002-12-17 14:29:49 51°22.434 3°11.393 263 14.9 257.9 15.5
2002-12-17 14:30:49 51°22.382 3°11.003 262.7 14.9 257 15.6
2002-12-17 14:31:49 51°22.344 3°10.609 266.2 15.2 263 18.5
2002-12-17 14:32:48 51°22.298 3°10.222 258.8 14.9 256.8 14.6
2002-12-17 14:33:48 51°22.238 3°9.833 259.7 15.2 256.4 13.8
2002-12-17 14:34:48 51°22.204 3°9.435 272.2 14.9 267.2 13.1
2002-12-17 14:35:48 51°22.19 3°9.041 271.3 14.9 266 12.4
2002-12-17 14:36:48 51°22.18 3°8.648 271 14.8 266.1 12.5
2002-12-17 14:37:48 51°22.147 3°8.259 264.2 14.8 260.1 12.3
2002-12-17 14:38:48 51°22.091 3°7.875 260.3 15 256.2 12.2
2002-12-17 14:39:48 51°22.028 3°7.491 260.8 14.9 256.3 12
2002-12-17 14:40:48 51°21.968 3°7.109 259.3 14.8 255 11.8
2002-12-17 14:41:48 51°21.89 3°6.738 253.7 14.8 249.9 11.6
2002-12-17 14:42:49 51°21.804 3°6.362 251.3 14.9 247.6 11.4
2002-12-17 14:43:49 51°21.709 3°5.996 250.7 14.9 247.5 11.1
2002-12-17 14:44:49 51°21.614 3°5.634 249.5 14.8 246.4 10.9
2002-12-17 14:45:49 51°21.513 3°5.276 248.5 14.6 245.4 10.7
2002-12-17 14:46:48 51°21.415 3°4.921 248.8 14.8 245.6 10.6
2002-12-17 14:47:48 51°21.318 3°4.558 249.7 14.8 246.7 10.6
2002-12-17 14:48:49 51°21.219 3°4.19 250.3 14.7 246.1 10
2002-12-17 14:49:49 51°21.125 3°3.829 250.7 14.8 247.8 9.9
2002-12-17 14:50:49 51°21.025 3°3.47 249.5 14.8 246.3 9.8
2002-12-17 14:51:49 51°20.928 3°3.107 250.7 14.8 247.7 9.8
2002-12-17 14:52:49 51°20.831 3°2.743 250.3 14.9 247.3 9.7
2002-12-17 14:53:49 51°20.727 3°2.384 249 14.9 246 9.6
2002-12-17 14:54:49 51°20.63 3°2.021 250 14.9 247.1 9.6
2002-12-17 14:55:49 51°20.526 3°1.661 247 15.1 243.7 9.5
2002-12-17 14:56:49 51°20.425 3°1.299 246.7 14.7 244.6 9.5
2002-12-17 14:57:50 51°20.325 3°0.929 250.2 15 247.4 9.2
2002-12-17 14:58:51 51°20.229 3°0.557 251.3 15 248.2 9.4
2002-12-17 14:59:51 51°20.134 3°0.192 250.3 14.9 247.3 9.3
2002-12-17 15:00:49 51°20.041 2°59.842 249 14.8 246.7 9.4
2002-12-17 15:01:49 51°19.949 2°59.477 249.5 14.9 247.1 9.3
2002-12-17 15:02:51 51°19.858 2°59.097 252.5 14.8 249.5 9.5
2002-12-17 15:03:51 51°19.78 2°58.722 254.7 14.8 251.6 9.7
2002-12-17 15:04:51 51°19.696 2°58.354 251.7 14.7 248.9 9.7
2002-12-17 15:05:51 51°19.611 2°57.988 253 14.6 250.4 10
2002-12-17 15:06:51 51°19.533 2°57.618 253.8 14.7 251.2 10
2002-12-17 15:07:50 51°19.451 2°57.256 252.3 14.8 249.4 10.1
2002-12-17 15:08:50 51°19.361 2°56.889 249.8 14.7 247.6 10.2
2002-12-17 15:09:49 51°19.261 2°56.541 246.7 14.7 244.3 10.4
2002-12-17 15:10:51 51°19.156 2°56.171 247.3 14.9 244.4 10.4
2002-12-17 15:11:51 51°19.057 2°55.812 247.7 14.7 244.8 10.6
2002-12-17 15:12:50 51°18.957 2°55.461 247.5 14.7 244.7 10.6
2002-12-17 15:13:51 51°18.855 2°55.097 250.8 14.9 247.7 10.5
2002-12-17 15:14:50 51°18.763 2°54.739 251 14.8 247.8 10.7
2002-12-17 15:15:50 51°18.669 2°54.377 251 14.8 248.2 10.7
2002-12-17 15:16:49 51°18.578 2°54.017 251.7 14.9 247.5 10.5
2002-12-17 15:17:50 51°18.481 2°53.648 249.2 14.9 245.3 10.5
2002-12-17 15:18:50 51°18.387 2°53.283 252.3 15 248.5 10.7
2002-12-17 15:19:50 51°18.295 2°52.917 247.3 14.7 244.5 10.6
2002-12-17 15:20:51 51°18.153 2°52.591 227.8 15 225.2 10.4
2002-12-17 15:21:51 51°17.939 2°52.425 196.3 14.2 196.3 10
2002-12-17 15:22:50 51°17.709 2°52.372 189.3 14.3 188.8 10
2002-12-17 15:23:49 51°17.479 2°52.318 192.2 13.9 192 10.1
2002-12-17 15:24:48 51°17.25 2°52.247 185.5 14.9 185.1 9.9
2002-12-17 15:25:50 51°17.031 2°52.362 151 13.5 151.6 9.3
2002-12-17 15:26:50 51°16.836 2°52.543 146.7 13.2 146.1 9.4
2002-12-17 15:27:48 51°16.645 2°52.724 149.3 14.2 149.1 10.8
2002-12-17 15:28:50 51°16.442 2°52.925 148 13.6 147.6 11.7
2002-12-17 15:29:55 51°16.231 2°53.125 151.8 13.6 151.3 11.8
2002-12-17 15:30:53 51°16.041 2°53.301 150.2 13.7 150.1 11.4
2002-12-17 15:31:55 51°15.842 2°53.499 148 13.4 147.6 11
2002-12-17 15:32:55 51°15.645 2°53.678 152.3 13.6 152.9 10.2
2002-12-17 15:33:53 51°15.456 2°53.863 149.8 13.3 149.1 9.5
2002-12-17 15:34:54 51°15.259 2°54.049 148 13.4 148.4 8.6
2002-12-17 15:35:54 51°15.071 2°54.241 147 13 146.8 8
2002-12-17 15:36:54 51°14.884 2°54.429 147 13 146.7 8.6
2002-12-17 15:37:54 51°14.702 2°54.638 142.8 13.5 143 8.8
2002-12-17 15:38:54 51°14.524 2°54.844 139.7 13.1 141.7 9
2002-12-17 15:39:54 51°14.368 2°55.073 134.2 12.5 131.1 9.6